• Join FlightAware (Why Join?)
  • Login
  • US Flag 
04:53AM EDT


 

Airport Tracker/Info


-or-


 

Live Flight TrackerFlight Track Log ✈ QFA1129 ✈ 10-Sep-2013 ✈ YPPD / PHE - YPPH / PER

Flight Track Log - Related Links

Times and Time Zones

All times are in EDT time to prevent confusion due to time zone crossing. See the QFA1129 flight status page for this flight to view local times or setup timezone preferences in your user account.

Time Position Orientation Groundspeed Altitude Reporting Facility
EDT Latitude Longitude Course Direction KTS MPH feet Rate Location/Type
01:41AM -20.3860 118.6330 223° Southwest 92 106  Level FlightAware
01:41AM -20.3780 118.6250 317° Northwest 155 178 1,260 Level FlightAware
01:41AM -20.3670 118.6140 317° Northwest 152 175 900 2,400 Climbing FlightAware
01:42AM -20.3590 118.6040 310° West 156 180 1,500 2,400 Climbing FlightAware
01:42AM -20.3590 118.6010 270° West 155 178 1,700 2,100 Climbing FlightAware
01:42AM -20.3680 118.5860 237° Southwest 171 197 2,500 1,920 Climbing FlightAware
01:42AM -20.4294 118.6171 332° Northwest 38,500 1,500 Climbing Aus ATC (Calculated)
01:42AM -20.3720 118.5850 193° South 179 206 2,600 -267,780 Descending FlightAware
01:42AM -20.3770 118.5840 191° South 191 220 2,800 1,680 Climbing FlightAware
01:43AM -20.4000 118.5880 191° South 229 264 3,400 1,860 Climbing FlightAware
01:43AM -20.4260 118.5960 164° South 261 300 4,200 2,160 Climbing FlightAware
01:43AM -20.5293 118.5988 North 38,500 2,400 Climbing Aus ATC (Calculated)
01:43AM -20.4510 118.6040 163° South 279 321 5,000 -94,620 Descending FlightAware
01:44AM -20.4610 118.6050 175° South 284 327 5,400 3,360 Climbing FlightAware
01:44AM -20.4970 118.6010 175° South 277 319 7,100 3,120 Climbing FlightAware
01:44AM -20.6229 118.5816 North 38,500 2,520 Climbing Aus ATC (Calculated)
01:44AM -20.5230 118.5960 175° South 294 338 7,900 -45,420 Descending FlightAware
01:45AM -20.5500 118.5920 188° South 294 338 9,000 3,060 Climbing FlightAware
01:45AM -20.7107 118.5656 North 38,500 3,000 Climbing Aus ATC (Calculated)
01:45AM -20.6010 118.5830 188° South 318 366 10,800 -35,220 Descending FlightAware
01:46AM -20.6530 118.5730 190° South 350 403 12,100 2,700 Climbing FlightAware
01:46AM -20.7930 118.5504 North 38,500 3,120 Climbing Aus ATC (Calculated)
01:46AM -20.7120 118.5620 190° South 364 419 14,000 -26,340 Descending FlightAware
01:47AM -20.7740 118.5510 190° South 377 434 15,700 3,060 Climbing FlightAware
01:48AM -20.8330 118.5400 190° South 376 433 17,600 3,120 Climbing FlightAware
01:48AM -20.8940 118.5290 190° South 372 428 19,400 2,400 Climbing FlightAware
01:49AM -20.9487 118.5163 190° South 379 436 20,400 1,980 Climbing Aus ATC (RADAR)
01:49AM -20.9560 118.5180 190° South 388 447 20,600 2,220 Climbing FlightAware
01:49AM -21.0150 118.5070 190° South 397 457 21,700 1,980 Climbing FlightAware
01:50AM -21.0810 118.4950 190° South 406 467 22,900 2,040 Climbing FlightAware
01:51AM -21.1480 118.4830 189° South 408 470 24,200 2,100 Climbing FlightAware
01:51AM -21.2100 118.4720 189° South 412 474 25,400 1,980 Climbing FlightAware
01:52AM -21.2770 118.4600 189° South 416 479 26,500 1,680 Climbing FlightAware
01:52AM -21.3460 118.4470 190° South 426 490 27,400 1,500 Climbing FlightAware
01:53AM -21.4130 118.4350 189° South 433 498 28,300 1,500 Climbing FlightAware
01:53AM -21.4900 118.4210 190° South 443 510 29,200 1,320 Climbing FlightAware
01:54AM -21.5510 118.4100 190° South 449 517 29,800 1,140 Climbing FlightAware
01:55AM -21.6230 118.3960 190° South 458 527 30,500 540 Climbing FlightAware
01:55AM -21.6930 118.3840 189° South 458 527 30,500 1,500 Level FlightAware
01:56AM -21.7830 118.3670 190° South 461 531 32,400 2,580 Climbing FlightAware
01:56AM -21.8470 118.3550 190° South 458 527 33,400 1,140 Climbing FlightAware
01:57AM -21.9510 118.3370 189° South 455 524 34,100 1,020 Climbing FlightAware
01:58AM -22.0520 118.3180 190° South 455 524 35,200 780 Climbing FlightAware
01:59AM -22.1160 118.3070 189° South 455 524 35,200 1,560 Level FlightAware
01:59AM -22.2092 118.2875 189° South 452 520 37,100 2,280 Climbing Aus ATC (RADAR)
02:00AM -22.2820 118.2737 190° South 449 517 37,900 1,380 Climbing Aus ATC (RADAR)
02:00AM -22.3120 118.2690 190° South 458 527 38,300 1,380 Climbing FlightAware
02:01AM -22.4052 118.2520 190° South 440 506 39,300 600 Climbing Aus ATC (RADAR)
02:01AM -22.4030 118.2520 190° South 439 505 38,800 960 Descending FlightAware
02:01AM -22.4780 118.2380 190° South 438 504 39,900 900 Climbing FlightAware
02:02AM -22.5580 118.2240 189° South 438 504 40,000 60 Climbing FlightAware
02:03AM -22.6190 118.2140 189° South 438 504 40,000  Level FlightAware
02:04AM -22.7360 118.1900 191° South 428 493 40,000 -120 Level FlightAware
02:04AM -22.8243 118.1743 191° South 431 496 39,900  Descending Aus ATC (RADAR)
02:04AM -22.8290 118.1740 191° South 428 493 40,000 120 Climbing FlightAware
02:05AM -22.8890 118.1630 190° South 428 493 40,000  Level FlightAware
02:06AM -22.9490 118.1530 189° South 428 493 40,000  Level FlightAware
02:06AM -23.0100 118.1430 189° South 428 493 40,000  Level FlightAware
02:07AM -23.0700 118.1320 190° South 428 493 40,000  Level FlightAware
02:07AM -23.1310 118.1220 189° South 428 493 40,000  Level FlightAware
02:08AM -23.1910 118.1110 190° South 428 493 40,000  Level FlightAware
02:09AM -23.2540 118.1010 188° South 428 493 40,000  Level FlightAware
02:09AM -23.3140 118.0900 190° South 428 493 40,000  Level FlightAware
02:10AM -23.3760 118.0800 190° South 428 493 40,000  Level FlightAware
02:10AM -23.5031 118.0482 190° South 437 503 40,000  Level Aus ATC (RADAR)
02:11AM -23.4370 118.0690 189° South 428 493 40,000  Level FlightAware
02:11AM -23.4940 118.0590 189° South 428 493 40,000  Level FlightAware
02:12AM -23.5540 118.0490 189° South 428 493 40,000  Level FlightAware
02:12AM -23.6140 118.0390 189° South 428 493 40,000  Level FlightAware
02:13AM -23.6730 118.0280 190° South 428 493 40,000  Level FlightAware
02:14AM -23.7330 118.0180 189° South 428 493 40,000  Level FlightAware
02:14AM -24.0388 117.9463 189° South 435 501 40,000 -120 Level Aus ATC (RADAR)
02:15AM -24.1087 117.9330 190° South 435 501 39,900  Descending Aus ATC (RADAR)
02:16AM -24.2693 117.9024 190° South 436 502 40,000 60 Climbing Aus ATC (RADAR)
02:17AM -24.2993 117.8963 191° South 437 503 40,000  Level Aus ATC (RADAR)
02:17AM -24.3792 117.8808 190° South 435 501 40,000  Level Aus ATC (RADAR)
02:18AM -24.4883 117.8601 190° South 432 497 40,000  Level Aus ATC (RADAR)
02:19AM -24.5674 117.8447 190° South 432 497 40,000 -120 Level Aus ATC (RADAR)
02:20AM -24.6662 117.8269 189° South 430 495 39,900 -120 Descending Aus ATC (RADAR)
02:20AM -24.7353 117.8126 191° South 431 496 39,900  Level Aus ATC (RADAR)
02:21AM -24.8735 117.7861 190° South 430 495 39,900  Level Aus ATC (RADAR)
02:22AM -24.9228 117.7763 190° South 430 495 39,900  Level Aus ATC (RADAR)
02:22AM -24.9918 117.7637 189° South 429 494 39,900  Level Aus ATC (RADAR)
02:23AM -25.0805 117.7465 190° South 430 495 39,900  Level Aus ATC (RADAR)
02:24AM -25.1497 117.7320 191° South 432 497 39,900  Level Aus ATC (RADAR)
02:24AM -25.2378 117.7163 189° South 430 495 39,900  Level Aus ATC (RADAR)
02:25AM -25.2973 117.7054 189° South 431 496 39,900  Level Aus ATC (RADAR)
02:26AM -25.3965 117.6860 190° South 433 498 39,900  Level Aus ATC (RADAR)
02:26AM -25.4461 117.6769 189° South 433 498 39,900  Level Aus ATC (RADAR)
02:27AM -25.4957 117.6674 190° South 433 498 39,900  Level Aus ATC (RADAR)
02:27AM -25.5651 117.6522 191° South 434 499 39,900  Level Aus ATC (RADAR)
02:28AM -25.6641 117.6333 190° South 433 498 39,900  Level Aus ATC (RADAR)
02:29AM -25.7333 117.6200 190° South 432 497 39,900  Level Aus ATC (RADAR)
02:29AM -25.8223 117.6047 189° South 430 495 39,900  Level Aus ATC (RADAR)
02:30AM -25.8716 117.5934 192° South 432 497 39,900  Level Aus ATC (RADAR)
02:30AM -25.9404 117.5787 191° South 431 496 39,900  Level Aus ATC (RADAR)
02:31AM -26.0581 117.5561 190° South 428 493 39,900  Level Aus ATC (RADAR)
02:32AM -26.1069 117.5473 189° South 427 491 39,900  Level Aus ATC (RADAR)
02:32AM -26.1750 117.5334 190° South 426 490 39,900  Level Aus ATC (RADAR)
02:33AM -26.2623 117.5157 190° South 425 489 39,900  Level Aus ATC (RADAR)
02:34AM -26.3305 117.5035 189° South 425 489 39,900  Level Aus ATC (RADAR)
02:34AM -26.4181 117.4858 190° South 426 490 39,900  Level Aus ATC (RADAR)
02:35AM -26.4668 117.4766 190° South 427 491 39,900  Level Aus ATC (RADAR)
02:35AM -26.5354 117.4638 190° South 427 491 39,900  Level Aus ATC (RADAR)
02:36AM -26.6432 117.4440 189° South 428 493 39,900  Level Aus ATC (RADAR)
02:37AM -26.6914 117.4346 190° South 425 489 39,900  Level Aus ATC (RADAR)
02:37AM -26.7573 117.4217 190° South 416 479 39,900 -180 Level Aus ATC (RADAR)
02:38AM -26.8422 117.4053 190° South 413 475 39,700 -840 Descending Aus ATC (RADAR)
02:39AM -26.9087 117.3926 190° South 416 479 38,800 -1,200 Descending Aus ATC (RADAR)
02:39AM -26.9854 117.3785 189° South 420 483 38,200 -480 Descending Aus ATC (RADAR)
02:44AM -27.6774 117.2326 North 36,000 -420 Descending Aus ATC (Calculated)
02:45AM -27.7572 117.2156 North 36,000 -120 Level Aus ATC (Calculated)
02:45AM -27.6601 117.2328 189° South 393 452 35,900 -120 Descending Aus ATC (RADAR)
02:46AM -27.7486 117.2179 188° South 386 444 35,900  Level Aus ATC (RADAR)
02:47AM -27.8018 117.2101 187° South 386 444 35,900  Level Aus ATC (RADAR)
02:47AM -27.8632 117.1970 191° South 386 444 35,900  Level Aus ATC (RADAR)
02:48AM -27.9247 117.1839 191° South 386 444 35,900  Level Aus ATC (RADAR)
02:49AM -27.9857 117.1705 191° South 384 442 35,900  Level Aus ATC (RADAR)
02:49AM -28.0641 117.1537 191° South 382 440 35,900  Level Aus ATC (RADAR)
02:50AM -28.1039 117.1348 203° Southwest 378 435 35,900  Level Aus ATC (RADAR)
02:50AM -28.1726 117.1189 192° South 375 432 35,900  Level Aus ATC (RADAR)
02:51AM -28.2766 117.0990 190° South 376 433 35,900  Level Aus ATC (RADAR)
02:52AM -28.3210 117.0921 188° South 382 440 35,900  Level Aus ATC (RADAR)
02:52AM -28.3825 117.0845 186° South 384 442 35,900  Level Aus ATC (RADAR)
02:53AM -28.4686 117.0643 192° South 377 434 35,900  Level Aus ATC (RADAR)
02:54AM -28.5298 117.0522 190° South 378 435 35,900 60 Level Aus ATC (RADAR)
02:54AM -28.6020 117.0420 190° South 377 434 36,000 60 Climbing FlightAware
02:55AM -28.6660 117.0290 190° South 378 435 36,000  Level FlightAware
02:56AM -28.7190 117.0180 190° South 378 435 36,000  Level FlightAware
02:56AM -28.7960 117.0020 190° South 379 436 36,000  Level FlightAware
02:57AM -28.8860 116.9830 190° South 377 434 36,000  Level FlightAware
02:58AM -28.9480 116.9700 190° South 376 433 36,000  Level FlightAware
02:58AM -29.0070 116.9590 189° South 376 433 36,000  Level FlightAware
02:59AM -29.1000 116.9390 191° South 374 430 36,000  Level FlightAware
03:00AM -29.1480 116.9290 190° South 374 430 36,000  Level FlightAware
03:00AM -29.2000 116.9190 190° South 374 430 36,000  Level FlightAware
03:01AM -29.2500 116.9090 190° South 374 430 36,000 -180 Level FlightAware
03:02AM -29.3589 116.8797 190° South 380 437 35,800  Descending Aus ATC (RADAR)
03:02AM -29.3510 116.8860 190° South 373 429 36,000 240 Climbing FlightAware
03:02AM -29.4240 116.8710 190° South 380 437 36,000  Level FlightAware
03:03AM -29.5130 116.8530 190° South 379 436 36,000  Level FlightAware
03:04AM -29.5940 116.8350 191° South 379 436 36,000  Level FlightAware
03:05AM -29.6560 116.8070 201° Southwest 316 364 36,000  Level FlightAware
03:05AM -29.6760 116.7830 226° Southwest 294 338 36,000  Level FlightAware
03:05AM -29.6820 116.7720 238° Southwest 279 321 36,000 -300 Level FlightAware
03:06AM -29.7001 116.7174 238° Southwest 267 307 35,800  Descending Aus ATC (RADAR)
03:06AM -29.7000 116.7220 238° Southwest 273 314 36,000 240 Climbing FlightAware
03:07AM -29.7190 116.6680 248° West 273 314 36,000 -180 Level FlightAware
03:07AM -29.7383 116.6081 248° West 271 312 35,800  Descending Aus ATC (RADAR)
03:07AM -29.7440 116.5970 248° West 272 313 36,000 180 Climbing FlightAware
03:08AM -29.7660 116.5350 248° West 274 315 36,000  Level FlightAware
03:09AM -29.7870 116.4800 246° West 274 315 36,000  Level FlightAware
03:09AM -29.8030 116.4390 246° West 290 334 36,000  Level FlightAware
03:10AM -29.8290 116.4080 226° Southwest 335 386 36,000  Level FlightAware
03:10AM -29.8850 116.3880 226° Southwest 367 422 36,000 -360 Level FlightAware
03:10AM -29.8911 116.3806 226° Southwest 386 444 35,800  Descending Aus ATC (RADAR)
03:11AM -29.9370 116.3910 177° South 421 484 36,000 120 Climbing FlightAware
03:11AM -30.0130 116.3950 177° South 418 481 36,000  Level FlightAware
03:12AM -30.1030 116.4000 177° South 416 479 36,000  Level FlightAware
03:13AM -30.1700 116.4030 178° South 417 480 36,000  Level FlightAware
03:13AM -30.2380 116.4060 178° South 416 479 36,000  Level FlightAware
03:14AM -30.3140 116.4090 178° South 416 479 36,000  Level FlightAware
03:14AM -30.3810 116.4130 177° South 406 467 36,000 -120 Level FlightAware
03:15AM -30.4470 116.4160 177° South 400 460 35,900 -360 Descending FlightAware
03:15AM -30.4520 116.4147 177° South 411 473 35,800 -1,200 Descending Aus ATC (RADAR)
03:16AM -30.5210 116.4190 178° South 404 465 35,100 -1,380 Descending FlightAware
03:16AM -30.5780 116.4220 177° South 402 463 34,300 -1,620 Descending FlightAware
03:17AM -30.6450 116.4250 177° South 405 466 33,400 -1,920 Descending FlightAware
03:17AM -30.6483 116.4243 177° South 404 465 33,100 -1,680 Descending Aus ATC (RADAR)
03:17AM -30.7180 116.4300 177° South 406 467 32,300 -1,800 Descending FlightAware
03:18AM -30.7750 116.4430 169° South 414 476 31,100 -2,220 Descending FlightAware
03:19AM -30.8479 116.4589 169° South 432 497 29,800 -1,800 Descending Aus ATC (RADAR)
03:19AM -30.8530 116.4600 169° South 424 488 29,900 -600 Climbing FlightAware
03:19AM -30.9120 116.4720 170° South 428 493 29,500 -840 Descending FlightAware
03:20AM -30.9810 116.4870 169° South 431 496 29,000 -900 Descending FlightAware
03:20AM -31.0480 116.5040 168° South 424 488 28,500 -1,080 Descending FlightAware
03:21AM -31.1240 116.5200 170° South 394 453 27,700 -1,500 Descending FlightAware
03:21AM -31.1760 116.5160 184° South 357 411 26,800 -2,040 Descending FlightAware
03:22AM -31.1960 116.5010 213° Southwest 339 390 26,200 -2,400 Descending FlightAware
03:22AM -31.2280 116.4590 213° Southwest 351 404 25,000 -2,640 Descending FlightAware
03:22AM -31.2287 116.4549 213° Southwest 337 388 24,800 -2,280 Descending Aus ATC (RADAR)
03:23AM -31.2735 116.4089 213° Southwest 361 415 23,600 -1,620 Descending Aus ATC (RADAR)
03:23AM -31.2790 116.4070 213° Southwest 379 436 23,800  Climbing FlightAware
03:23AM -31.3170 116.3800 211° Southwest 365 420 23,600 -600 Descending FlightAware
03:24AM -31.3650 116.3390 216° Southwest 361 415 23,200 -1,200 Descending FlightAware
03:25AM -31.4170 116.2940 216° Southwest 352 405 22,100 -1,380 Descending FlightAware
03:25AM -31.4660 116.2620 209° Southwest 330 380 21,500 -1,440 Descending FlightAware
03:26AM -31.5140 116.2310 209° Southwest 331 381 20,500 -1,740 Descending FlightAware
03:26AM -31.5600 116.2020 208° Southwest 328 377 19,500 -1,920 Descending FlightAware
03:27AM -31.6060 116.1720 209° Southwest 329 379 18,300 -2,220 Descending FlightAware
03:27AM -31.6488 116.1448 209° Southwest 329 379 17,100 -1,920 Descending Aus ATC (RADAR)
03:27AM -31.6540 116.1420 209° Southwest 328 377 17,200 -1,560 Climbing FlightAware
03:28AM -31.6950 116.1155 209° Southwest 320 368 16,200 -1,560 Descending Aus ATC (RADAR)
03:28AM -31.7000 116.1120 209° Southwest 316 364 16,300 -1,440 Climbing FlightAware
03:29AM -31.7460 116.0840 207° Southwest 320 368 15,300 -1,680 Descending FlightAware
03:29AM -31.7970 116.0690 194° South 313 360 14,400 -1,560 Descending FlightAware
03:29AM -31.8180 116.0660 187° South 324 373 14,000 -1,560 Descending FlightAware
03:30AM -31.8630 116.0780 167° South 333 383 13,200 -1,740 Descending FlightAware
03:31AM -31.9133 116.1038 167° South 330 380 12,100 -1,620 Descending Aus ATC (RADAR)
03:31AM -31.9400 116.1170 167° South 318 366 11,800 -1,380 Descending FlightAware
03:31AM -31.9880 116.1410 157° South 313 360 10,900 -1,620 Descending FlightAware
03:32AM -32.0300 116.1590 160° South 311 358 10,100 -1,560 Descending FlightAware
03:32AM -32.0640 116.1730 161° South 302 348 9,500 -1,440 Descending FlightAware
03:33AM -32.1030 116.1700 184° South 297 342 8,800 -1,620 Descending FlightAware
03:33AM -32.1430 116.1590 193° South 295 339 8,000 -1,620 Descending FlightAware
03:34AM -32.1600 116.1540 194° South 293 337 7,700 -1,440 Descending FlightAware
03:34AM -32.1740 116.1480 200° South 282 325 7,400 -1,620 Descending FlightAware
03:34AM -32.1830 116.1410 213° Southwest 267 307 7,200 -1,440 Descending FlightAware
03:34AM -32.1940 116.1200 238° Southwest 252 290 6,800 -1,380 Descending FlightAware
03:34AM -32.1970 116.0990 260° West 245 282 6,400 -1,020 Descending FlightAware
03:35AM -32.1980 116.0510 269° West 232 267 5,900 -840 Descending FlightAware
03:35AM -32.1960 116.0200 274° West 218 251 5,600 -960 Descending FlightAware
03:36AM -32.1910 115.9950 283° West 220 253 5,200 -1,200 Descending FlightAware
03:36AM -32.1860 115.9720 284° West 224 258 4,800 -900 Descending FlightAware
03:36AM -32.1810 115.9490 284° West 223 257 4,600 -480 Descending FlightAware
03:37AM -32.1760 115.9260 284° West 213 245 4,500 -240 Descending FlightAware
03:37AM -32.1740 115.9200 291° West 205 236 4,500 -600 Level FlightAware
03:37AM -32.1710 115.9160 312° West 201 231 4,400 -840 Descending FlightAware
03:37AM -32.1640 115.9090 320° Northwest 192 221 4,300 -840 Descending FlightAware
03:37AM -32.1600 115.9060 328° Northwest 190 219 4,200 -840 Descending FlightAware
03:37AM -32.1520 115.9050 354° North 189 217 4,100 -1,020 Descending FlightAware
03:38AM -32.1340 115.9090 11° North 195 224 3,700 -1,080 Descending FlightAware
03:38AM -32.1160 115.9140 13° North 190 219 3,400 -960 Descending FlightAware
03:38AM -32.0960 115.9200 14° North 184 212 3,000 -960 Descending FlightAware
03:39AM -32.0790 115.9250 14° North 181 208 2,700 -1,080 Descending FlightAware
03:39AM -32.0630 115.9290 12° North 178 205 2,300 -1,080 Descending FlightAware
03:39AM -32.0470 115.9340 15° North 166 191 2,000 -780 Descending FlightAware
03:40AM -32.0360 115.9370 13° North 156 180 1,800 -840 Descending FlightAware
03:40AM -32.0180 115.9420 13° North 146 168 1,400 -780 Descending FlightAware
03:40AM -32.0080 115.9450 14° North 138 159 1,300 -600 Descending FlightAware
03:41AM -31.9920 115.9500 15° North 137 158 1,000 -780 Descending FlightAware
03:41AM -31.9770 115.9540 13° North 137 158 700 -840 Descending FlightAware
03:42AM -31.9620 115.9590 16° North 137 158 400 -840 Descending FlightAware
03:42AM -31.9490 115.9630 15° North 115 132 -1,080 Descending FlightAware